East Kingsford, Michigan
Current Conditions -  °F | °C
As of 1:19 AM on Thursday 18 Dec 2014 (Local Time) from KIMT Reporting Station
Overcast Overcast  
Wind Chill: 14°   Ceiling: 1500
Heat Index: 24°   Visibility: 10mi
Dew Point: 19°   Wind: 9mph
Humidity: 81%   Direction: 360°N
Pressure: 30.22"   Gusts: NA
Location:  45.9025°N, 88.0366°W
Report Text: KIMT 180719Z AUTO 36008KT 10SM OVC015 M04/M07 A3022 RMK AO2 T10441072
Loading
Personal Weather Stations






























Interactive Weather Map New forecast layout! Learn more

10-Day Weather Forecast

Advertisements
Track Severe Weather on mobile